ITY1364 LIPQ-LIRF
Flight info
| Callsign | ITY1364 |
|---|---|
| Flight time | 0h 47m |
| Altitude | 37000 |
| Route | ROSKA DCT BELOV DCT MOGPU DCT NIKMA DCT RITEB |
| Aircraft | A320/M-SDE3FGHIRWY/LB1 |
Departure
| Time | 2026-04-14 14:59 |
|---|---|
| Airport | Trieste Airport (LIPQ) |
Arrival
| Time | 2026-04-14 15:47 |
|---|---|
| Airport | Rome–Fiumicino Leonardo da Vinci International Airport (LIRF) |
| Time | Latitude | Longitude | Altitude | Speed | Heading |
|---|---|---|---|---|---|
| 2026-04-14 14:39 | 45.82217 | 13.48484 | 42 ft | 0 kts | 168° |
| 2026-04-14 14:52 | 45.82218 | 13.48484 | 42 ft | 0 kts | 168° |
| 2026-04-14 14:53 | 45.82228 | 13.48481 | 42 ft | 2 kts | 168° |
| 2026-04-14 14:53 | 45.82242 | 13.48476 | 42 ft | 2 kts | 168° |
| 2026-04-14 14:53 | 45.82257 | 13.48472 | 42 ft | 2 kts | 168° |
| 2026-04-14 14:53 | 45.82266 | 13.48470 | 42 ft | 1 kts | 161° |
| 2026-04-14 14:54 | 45.82275 | 13.48456 | 42 ft | 2 kts | 106° |
| 2026-04-14 14:54 | 45.82276 | 13.48445 | 42 ft | 1 kts | 78° |
| 2026-04-14 14:54 | 45.82275 | 13.48436 | 42 ft | 0 kts | 79° |
| 2026-04-14 14:56 | 45.82276 | 13.48443 | 42 ft | 4 kts | 79° |
| 2026-04-14 14:57 | 45.82296 | 13.48556 | 42 ft | 13 kts | 53° |
| 2026-04-14 14:57 | 45.82352 | 13.48579 | 42 ft | 8 kts | 353° |
| 2026-04-14 14:57 | 45.82409 | 13.48574 | 42 ft | 8 kts | 358° |
| 2026-04-14 14:57 | 45.82472 | 13.48572 | 42 ft | 9 kts | 358° |
| 2026-04-14 14:58 | 45.82541 | 13.48570 | 43 ft | 10 kts | 359° |
| 2026-04-14 14:58 | 45.82617 | 13.48573 | 43 ft | 11 kts | 1° |
| 2026-04-14 14:58 | 45.82698 | 13.48575 | 43 ft | 12 kts | 1° |
| 2026-04-14 14:58 | 45.82769 | 13.48549 | 44 ft | 11 kts | 298° |
| 2026-04-14 14:59 | 45.82779 | 13.48178 | 44 ft | 76 kts | 267° |
| 2026-04-14 14:59 | 45.82781 | 13.47027 | 46 ft | 153 kts | 270° |
| 2026-04-14 14:59 | 45.82776 | 13.45357 | 565 ft | 177 kts | 271° |
| 2026-04-14 14:59 | 45.82806 | 13.43607 | 1399 ft | 182 kts | 273° |
| 2026-04-14 15:00 | 45.82832 | 13.41768 | 2188 ft | 192 kts | 274° |
| 2026-04-14 15:00 | 45.82864 | 13.39762 | 2754 ft | 215 kts | 273° |
| 2026-04-14 15:00 | 45.82845 | 13.37575 | 3470 ft | 228 kts | 260° |
| 2026-04-14 15:00 | 45.82103 | 13.35623 | 4291 ft | 230 kts | 217° |
| 2026-04-14 15:01 | 45.80714 | 13.34592 | 5200 ft | 226 kts | 198° |
| 2026-04-14 15:01 | 45.79266 | 13.33719 | 6073 ft | 228 kts | 199° |
| 2026-04-14 15:01 | 45.77830 | 13.32829 | 6931 ft | 229 kts | 200° |
| 2026-04-14 15:01 | 45.76380 | 13.31930 | 7761 ft | 230 kts | 200° |
| 2026-04-14 15:02 | 45.74917 | 13.31023 | 8588 ft | 231 kts | 200° |
| 2026-04-14 15:02 | 45.73449 | 13.30110 | 9383 ft | 233 kts | 201° |
| 2026-04-14 15:02 | 45.71976 | 13.29195 | 10161 ft | 236 kts | 201° |
| 2026-04-14 15:02 | 45.70536 | 13.28102 | 10914 ft | 241 kts | 219° |
| 2026-04-14 15:03 | 45.69405 | 13.26336 | 11670 ft | 243 kts | 227° |
| 2026-04-14 15:03 | 45.68282 | 13.24526 | 12418 ft | 245 kts | 227° |
| 2026-04-14 15:03 | 45.67139 | 13.22694 | 13150 ft | 247 kts | 226° |
| 2026-04-14 15:03 | 45.66000 | 13.20871 | 13865 ft | 250 kts | 227° |
| 2026-04-14 15:04 | 45.64843 | 13.19020 | 14579 ft | 251 kts | 227° |
| 2026-04-14 15:04 | 45.63593 | 13.17261 | 15239 ft | 252 kts | 214° |
| 2026-04-14 15:04 | 45.62136 | 13.15872 | 15919 ft | 253 kts | 212° |
| 2026-04-14 15:04 | 45.60703 | 13.14482 | 16557 ft | 254 kts | 213° |
| 2026-04-14 15:05 | 45.59235 | 13.13056 | 17195 ft | 256 kts | 213° |
| 2026-04-14 15:05 | 45.57771 | 13.11632 | 17806 ft | 257 kts | 213° |
| 2026-04-14 15:05 | 45.56296 | 13.10201 | 18411 ft | 258 kts | 212° |
| 2026-04-14 15:05 | 45.54821 | 13.08770 | 18978 ft | 261 kts | 212° |
| 2026-04-14 15:06 | 45.53317 | 13.07311 | 19530 ft | 263 kts | 213° |
| 2026-04-14 15:06 | 45.51803 | 13.05844 | 20086 ft | 265 kts | 212° |
| 2026-04-14 15:06 | 45.50277 | 13.04366 | 20647 ft | 266 kts | 212° |
| 2026-04-14 15:06 | 45.48737 | 13.02876 | 21164 ft | 269 kts | 212° |
| 2026-04-14 15:07 | 45.47205 | 13.01395 | 21674 ft | 271 kts | 213° |
| 2026-04-14 15:07 | 45.45644 | 12.99886 | 22165 ft | 273 kts | 213° |
| 2026-04-14 15:07 | 45.44069 | 12.98366 | 22671 ft | 274 kts | 213° |
| 2026-04-14 15:07 | 45.42495 | 12.96846 | 23168 ft | 276 kts | 213° |
| 2026-04-14 15:08 | 45.40907 | 12.95315 | 23632 ft | 278 kts | 213° |
| 2026-04-14 15:08 | 45.39310 | 12.93776 | 24099 ft | 280 kts | 213° |
| 2026-04-14 15:08 | 45.37688 | 12.92215 | 24549 ft | 282 kts | 213° |
| 2026-04-14 15:08 | 45.36077 | 12.90665 | 25002 ft | 283 kts | 213° |
| 2026-04-14 15:09 | 45.34433 | 12.89083 | 25446 ft | 285 kts | 213° |
| 2026-04-14 15:09 | 45.32793 | 12.87508 | 25858 ft | 287 kts | 213° |
| 2026-04-14 15:09 | 45.31064 | 12.86183 | 26234 ft | 287 kts | 195° |
| 2026-04-14 15:09 | 45.29084 | 12.85703 | 26517 ft | 292 kts | 187° |
| 2026-04-14 15:10 | 45.27049 | 12.85316 | 26705 ft | 301 kts | 187° |
| 2026-04-14 15:10 | 45.24937 | 12.84909 | 26904 ft | 314 kts | 188° |
| 2026-04-14 15:10 | 45.22722 | 12.84481 | 27178 ft | 324 kts | 188° |
| 2026-04-14 15:10 | 45.20461 | 12.84043 | 27514 ft | 332 kts | 188° |
| 2026-04-14 15:11 | 45.18148 | 12.83595 | 27728 ft | 343 kts | 188° |
| 2026-04-14 15:11 | 45.15756 | 12.83132 | 27924 ft | 354 kts | 188° |
| 2026-04-14 15:11 | 45.13270 | 12.82651 | 28121 ft | 364 kts | 188° |
| 2026-04-14 15:11 | 45.10743 | 12.82161 | 28304 ft | 373 kts | 188° |
| 2026-04-14 15:12 | 45.08125 | 12.81655 | 28475 ft | 383 kts | 188° |
| 2026-04-14 15:12 | 45.05461 | 12.81141 | 28639 ft | 391 kts | 188° |
| 2026-04-14 15:12 | 45.02726 | 12.80613 | 28794 ft | 400 kts | 188° |
| 2026-04-14 15:12 | 44.99977 | 12.80083 | 28942 ft | 408 kts | 188° |
| 2026-04-14 15:13 | 44.97133 | 12.79535 | 29147 ft | 414 kts | 188° |
| 2026-04-14 15:13 | 44.94264 | 12.78983 | 29456 ft | 417 kts | 187° |
| 2026-04-14 15:13 | 44.91416 | 12.78437 | 29767 ft | 419 kts | 187° |
| 2026-04-14 15:13 | 44.88496 | 12.77878 | 30091 ft | 422 kts | 187° |
| 2026-04-14 15:14 | 44.85569 | 12.77318 | 30425 ft | 423 kts | 187° |
| 2026-04-14 15:14 | 44.82662 | 12.76761 | 30768 ft | 425 kts | 187° |
| 2026-04-14 15:14 | 44.79733 | 12.76201 | 31063 ft | 427 kts | 187° |
| 2026-04-14 15:14 | 44.76784 | 12.75638 | 31375 ft | 428 kts | 187° |
| 2026-04-14 15:15 | 44.73812 | 12.75069 | 31629 ft | 431 kts | 188° |
| 2026-04-14 15:15 | 44.70878 | 12.74508 | 31892 ft | 432 kts | 188° |
| 2026-04-14 15:15 | 44.67876 | 12.73936 | 32176 ft | 433 kts | 188° |
| 2026-04-14 15:15 | 44.64907 | 12.73373 | 32528 ft | 432 kts | 188° |
| 2026-04-14 15:16 | 44.61935 | 12.72812 | 32911 ft | 431 kts | 188° |
| 2026-04-14 15:16 | 44.58981 | 12.72252 | 33294 ft | 429 kts | 188° |
| 2026-04-14 15:16 | 44.56062 | 12.71689 | 33615 ft | 428 kts | 189° |
| 2026-04-14 15:16 | 44.53130 | 12.70908 | 33950 ft | 427 kts | 193° |
| 2026-04-14 15:17 | 44.50260 | 12.69867 | 34254 ft | 426 kts | 195° |
| 2026-04-14 15:17 | 44.47402 | 12.68806 | 34538 ft | 426 kts | 195° |
| 2026-04-14 15:17 | 44.44552 | 12.67752 | 34820 ft | 425 kts | 195° |
| 2026-04-14 15:17 | 44.41705 | 12.66701 | 35015 ft | 425 kts | 195° |
| 2026-04-14 15:18 | 44.38853 | 12.65650 | 35200 ft | 425 kts | 195° |
| 2026-04-14 15:18 | 44.35973 | 12.64589 | 35377 ft | 426 kts | 195° |
| 2026-04-14 15:18 | 44.33141 | 12.63547 | 35542 ft | 426 kts | 195° |
| 2026-04-14 15:18 | 44.30271 | 12.62492 | 35729 ft | 426 kts | 195° |
| 2026-04-14 15:19 | 44.27394 | 12.61436 | 35879 ft | 427 kts | 195° |
| 2026-04-14 15:19 | 44.24548 | 12.60392 | 36058 ft | 427 kts | 195° |
| 2026-04-14 15:19 | 44.21657 | 12.59333 | 36168 ft | 428 kts | 195° |
| 2026-04-14 15:19 | 44.18776 | 12.58278 | 36305 ft | 429 kts | 195° |
| 2026-04-14 15:20 | 44.15901 | 12.57227 | 36490 ft | 429 kts | 195° |
| 2026-04-14 15:20 | 44.12997 | 12.56166 | 36674 ft | 429 kts | 195° |
| 2026-04-14 15:20 | 44.10140 | 12.55124 | 36830 ft | 430 kts | 195° |
| 2026-04-14 15:20 | 44.07223 | 12.54060 | 36992 ft | 431 kts | 195° |
| 2026-04-14 15:21 | 44.01431 | 12.51952 | 37055 ft | 432 kts | 195° |
| 2026-04-14 15:21 | 43.95634 | 12.49847 | 37054 ft | 431 kts | 195° |
| 2026-04-14 15:22 | 43.89830 | 12.47743 | 37043 ft | 430 kts | 195° |
| 2026-04-14 15:22 | 43.84018 | 12.45639 | 36987 ft | 430 kts | 195° |
| 2026-04-14 15:23 | 43.81143 | 12.44601 | 36475 ft | 430 kts | 195° |
| 2026-04-14 15:23 | 43.78268 | 12.43563 | 35932 ft | 434 kts | 195° |
| 2026-04-14 15:23 | 43.75349 | 12.42510 | 35201 ft | 440 kts | 194° |
| 2026-04-14 15:23 | 43.72373 | 12.41438 | 34686 ft | 438 kts | 194° |
| 2026-04-14 15:24 | 43.69434 | 12.40381 | 34039 ft | 438 kts | 194° |
| 2026-04-14 15:24 | 43.66519 | 12.39334 | 33421 ft | 436 kts | 194° |
| 2026-04-14 15:24 | 43.63588 | 12.38282 | 32885 ft | 433 kts | 194° |
| 2026-04-14 15:24 | 43.60698 | 12.37246 | 32376 ft | 429 kts | 194° |
| 2026-04-14 15:25 | 43.57846 | 12.36223 | 31879 ft | 427 kts | 194° |
| 2026-04-14 15:25 | 43.54948 | 12.35187 | 31353 ft | 434 kts | 194° |
| 2026-04-14 15:25 | 43.52007 | 12.34134 | 30825 ft | 437 kts | 193° |
| 2026-04-14 15:25 | 43.49069 | 12.33084 | 30289 ft | 436 kts | 193° |
| 2026-04-14 15:26 | 43.46143 | 12.32038 | 29793 ft | 433 kts | 193° |
| 2026-04-14 15:26 | 43.43262 | 12.31010 | 29268 ft | 428 kts | 193° |
| 2026-04-14 15:26 | 43.40393 | 12.29988 | 28732 ft | 424 kts | 193° |
| 2026-04-14 15:26 | 43.37534 | 12.28970 | 28197 ft | 420 kts | 193° |
| 2026-04-14 15:27 | 43.34712 | 12.27967 | 27663 ft | 423 kts | 193° |
| 2026-04-14 15:27 | 43.31848 | 12.26949 | 27116 ft | 426 kts | 193° |
| 2026-04-14 15:27 | 43.28984 | 12.25933 | 26570 ft | 426 kts | 193° |
| 2026-04-14 15:27 | 43.26129 | 12.24920 | 26022 ft | 422 kts | 193° |
| 2026-04-14 15:28 | 43.23337 | 12.23930 | 25488 ft | 419 kts | 193° |
| 2026-04-14 15:28 | 43.20526 | 12.22936 | 24939 ft | 415 kts | 193° |
| 2026-04-14 15:28 | 43.17733 | 12.21948 | 24395 ft | 411 kts | 193° |
| 2026-04-14 15:28 | 43.15015 | 12.20988 | 23857 ft | 408 kts | 193° |
| 2026-04-14 15:29 | 43.12268 | 12.20018 | 23321 ft | 405 kts | 193° |
| 2026-04-14 15:29 | 43.09549 | 12.19059 | 22795 ft | 402 kts | 193° |
| 2026-04-14 15:29 | 43.06860 | 12.18230 | 22249 ft | 399 kts | 187° |
| 2026-04-14 15:29 | 43.04076 | 12.17906 | 21712 ft | 396 kts | 181° |
| 2026-04-14 15:30 | 43.01340 | 12.17787 | 21185 ft | 394 kts | 181° |
| 2026-04-14 15:30 | 42.98615 | 12.17663 | 20652 ft | 392 kts | 181° |
| 2026-04-14 15:30 | 42.95899 | 12.17539 | 20128 ft | 390 kts | 181° |
| 2026-04-14 15:30 | 42.93218 | 12.17417 | 19611 ft | 388 kts | 181° |
| 2026-04-14 15:31 | 42.90547 | 12.17295 | 19097 ft | 385 kts | 181° |
| 2026-04-14 15:31 | 42.87848 | 12.17173 | 18571 ft | 383 kts | 181° |
| 2026-04-14 15:31 | 42.85210 | 12.17053 | 18086 ft | 380 kts | 181° |
| 2026-04-14 15:31 | 42.82612 | 12.16935 | 17840 ft | 368 kts | 181° |
| 2026-04-14 15:32 | 42.80101 | 12.16822 | 17634 ft | 356 kts | 181° |
| 2026-04-14 15:32 | 42.77654 | 12.16711 | 17329 ft | 340 kts | 181° |
| 2026-04-14 15:32 | 42.75359 | 12.16608 | 17093 ft | 325 kts | 181° |
| 2026-04-14 15:32 | 42.73123 | 12.16507 | 16783 ft | 314 kts | 181° |
| 2026-04-14 15:33 | 42.70967 | 12.16412 | 16321 ft | 308 kts | 180° |
| 2026-04-14 15:33 | 42.68866 | 12.16725 | 15763 ft | 305 kts | 164° |
| 2026-04-14 15:33 | 42.66829 | 12.17514 | 15237 ft | 303 kts | 164° |
| 2026-04-14 15:33 | 42.64829 | 12.18278 | 14690 ft | 301 kts | 164° |
| 2026-04-14 15:34 | 42.62806 | 12.19050 | 14176 ft | 298 kts | 163° |
| 2026-04-14 15:34 | 42.60826 | 12.19805 | 13642 ft | 296 kts | 164° |
| 2026-04-14 15:34 | 42.58859 | 12.20554 | 13117 ft | 294 kts | 163° |
| 2026-04-14 15:34 | 42.56891 | 12.21304 | 12590 ft | 292 kts | 163° |
| 2026-04-14 15:35 | 42.54936 | 12.22048 | 12097 ft | 292 kts | 163° |
| 2026-04-14 15:35 | 42.53005 | 12.22783 | 11672 ft | 292 kts | 163° |
| 2026-04-14 15:35 | 42.51036 | 12.23532 | 11269 ft | 291 kts | 163° |
| 2026-04-14 15:35 | 42.49092 | 12.24271 | 10872 ft | 290 kts | 163° |
| 2026-04-14 15:36 | 42.47174 | 12.24999 | 10489 ft | 289 kts | 163° |
| 2026-04-14 15:36 | 42.45242 | 12.25733 | 10229 ft | 283 kts | 163° |
| 2026-04-14 15:36 | 42.43320 | 12.26069 | 9863 ft | 283 kts | 182° |
| 2026-04-14 15:36 | 42.41370 | 12.25863 | 9513 ft | 282 kts | 182° |
| 2026-04-14 15:37 | 42.39398 | 12.25649 | 9148 ft | 281 kts | 182° |
| 2026-04-14 15:37 | 42.37465 | 12.25440 | 8794 ft | 279 kts | 182° |
| 2026-04-14 15:37 | 42.35540 | 12.25230 | 8405 ft | 277 kts | 182° |
| 2026-04-14 15:37 | 42.33614 | 12.25021 | 7881 ft | 276 kts | 182° |
| 2026-04-14 15:38 | 42.31715 | 12.24815 | 7424 ft | 274 kts | 182° |
| 2026-04-14 15:38 | 42.29831 | 12.24611 | 6971 ft | 271 kts | 182° |
| 2026-04-14 15:38 | 42.27967 | 12.24409 | 6506 ft | 269 kts | 182° |
| 2026-04-14 15:38 | 42.26115 | 12.24202 | 6065 ft | 267 kts | 183° |
| 2026-04-14 15:39 | 42.24263 | 12.23880 | 5627 ft | 266 kts | 187° |
| 2026-04-14 15:39 | 42.22463 | 12.23481 | 5199 ft | 265 kts | 187° |
| 2026-04-14 15:39 | 42.20649 | 12.23082 | 4760 ft | 263 kts | 187° |
| 2026-04-14 15:39 | 42.18833 | 12.22687 | 4454 ft | 260 kts | 187° |
| 2026-04-14 15:40 | 42.17056 | 12.22304 | 4225 ft | 263 kts | 187° |
| 2026-04-14 15:40 | 42.15233 | 12.21914 | 3923 ft | 262 kts | 187° |
| 2026-04-14 15:40 | 42.13449 | 12.21534 | 3614 ft | 262 kts | 187° |
| 2026-04-14 15:40 | 42.11643 | 12.21151 | 3309 ft | 259 kts | 187° |
| 2026-04-14 15:41 | 42.09901 | 12.20781 | 3005 ft | 252 kts | 187° |
| 2026-04-14 15:41 | 42.08188 | 12.20419 | 2712 ft | 244 kts | 187° |
| 2026-04-14 15:41 | 42.06552 | 12.20074 | 2563 ft | 232 kts | 187° |
| 2026-04-14 15:41 | 42.05020 | 12.19750 | 2514 ft | 212 kts | 187° |
| 2026-04-14 15:42 | 42.03613 | 12.19453 | 2505 ft | 196 kts | 186° |
| 2026-04-14 15:42 | 42.02283 | 12.19248 | 2505 ft | 193 kts | 178° |
| 2026-04-14 15:42 | 42.00958 | 12.19472 | 2489 ft | 191 kts | 167° |
| 2026-04-14 15:42 | 41.99653 | 12.19915 | 2487 ft | 191 kts | 164° |
| 2026-04-14 15:43 | 41.98386 | 12.20406 | 2489 ft | 190 kts | 163° |
| 2026-04-14 15:43 | 41.97172 | 12.20893 | 2476 ft | 171 kts | 162° |
| 2026-04-14 15:43 | 41.96060 | 12.21353 | 2348 ft | 163 kts | 162° |
| 2026-04-14 15:43 | 41.94985 | 12.21802 | 2137 ft | 160 kts | 162° |
| 2026-04-14 15:44 | 41.93941 | 12.22241 | 1905 ft | 157 kts | 162° |
| 2026-04-14 15:44 | 41.92893 | 12.22678 | 1687 ft | 156 kts | 162° |
| 2026-04-14 15:44 | 41.91862 | 12.23112 | 1491 ft | 156 kts | 163° |
| 2026-04-14 15:44 | 41.90814 | 12.23549 | 1297 ft | 153 kts | 162° |
| 2026-04-14 15:45 | 41.89853 | 12.23950 | 1119 ft | 133 kts | 163° |
| 2026-04-14 15:45 | 41.89000 | 12.24308 | 928 ft | 126 kts | 164° |
| 2026-04-14 15:45 | 41.88168 | 12.24659 | 760 ft | 125 kts | 163° |
| 2026-04-14 15:45 | 41.87334 | 12.25024 | 613 ft | 125 kts | 162° |
| 2026-04-14 15:46 | 41.86514 | 12.25425 | 456 ft | 125 kts | 167° |
| 2026-04-14 15:46 | 41.85674 | 12.25713 | 287 ft | 124 kts | 165° |
| 2026-04-14 15:46 | 41.84828 | 12.26049 | 128 ft | 125 kts | 163° |
| 2026-04-14 15:46 | 41.84011 | 12.26392 | 17 ft | 116 kts | 163° |
| 2026-04-14 15:47 | 41.83404 | 12.26651 | 13 ft | 73 kts | 167° |
| 2026-04-14 15:47 | 41.83108 | 12.26626 | 12 ft | 29 kts | 189° |
| 2026-04-14 15:47 | 41.82898 | 12.26569 | 11 ft | 32 kts | 189° |
| 2026-04-14 15:47 | 41.82682 | 12.26629 | 11 ft | 32 kts | 163° |
| 2026-04-14 15:48 | 41.82459 | 12.26721 | 11 ft | 34 kts | 163° |
| 2026-04-14 15:48 | 41.82231 | 12.26817 | 11 ft | 35 kts | 162° |
| 2026-04-14 15:48 | 41.81992 | 12.26917 | 11 ft | 36 kts | 162° |
| 2026-04-14 15:48 | 41.81744 | 12.27022 | 12 ft | 37 kts | 161° |
| 2026-04-14 15:49 | 41.81502 | 12.27121 | 13 ft | 29 kts | 162° |
| 2026-04-14 15:49 | 41.81302 | 12.27206 | 13 ft | 31 kts | 162° |
| 2026-04-14 15:49 | 41.81092 | 12.27293 | 13 ft | 32 kts | 162° |
| 2026-04-14 15:49 | 41.80941 | 12.27351 | 13 ft | 19 kts | 172° |
| 2026-04-14 15:50 | 41.80801 | 12.27327 | 13 ft | 21 kts | 189° |
| 2026-04-14 15:50 | 41.80666 | 12.27262 | 14 ft | 17 kts | 234° |
| 2026-04-14 15:50 | 41.80610 | 12.27063 | 14 ft | 29 kts | 247° |
| 2026-04-14 15:50 | 41.80538 | 12.26802 | 15 ft | 30 kts | 249° |
| 2026-04-14 15:51 | 41.80461 | 12.26529 | 16 ft | 29 kts | 249° |
| 2026-04-14 15:51 | 41.80358 | 12.26370 | 16 ft | 22 kts | 169° |
| 2026-04-14 15:51 | 41.80283 | 12.26383 | 16 ft | 0 kts | 214° |
| 2026-04-14 15:51 | 41.80287 | 12.26342 | 16 ft | 7 kts | 293° |
| 2026-04-14 15:52 | 41.80277 | 12.26289 | 16 ft | 9 kts | 208° |
| 2026-04-14 15:52 | 41.80249 | 12.26272 | 16 ft | 0 kts | 206° |